createdAt,value
2023-03-08T00:02:16.982Z,98211.91
2023-03-08T00:04:43.779Z,98214.41
2023-03-08T00:07:10.553Z,98207.72
2023-03-08T00:09:40.227Z,98211.06
2023-03-08T00:12:08.381Z,98207.72
2023-03-08T00:14:35.631Z,98205.22
2023-03-08T00:17:02.838Z,98201.03
2023-03-08T00:19:30.258Z,98202.69
2023-03-08T00:21:57.481Z,98197.69
2023-03-08T00:24:24.466Z,98192.69
2023-03-08T00:26:51.193Z,98190.19
2023-03-08T00:29:17.968Z,98189.38
2023-03-08T00:31:44.803Z,98175.97
2023-03-08T00:34:11.564Z,98183.50
2023-03-08T00:36:38.394Z,98186.84
2023-03-08T00:39:05.508Z,98182.69
2023-03-08T00:41:32.297Z,98195.22
2023-03-08T00:43:59.013Z,98183.50
2023-03-08T00:46:26.607Z,98178.50
2023-03-08T00:48:53.390Z,98186.03
2023-03-08T00:51:21.417Z,98183.50
2023-03-08T00:53:49.307Z,98183.53
2023-03-08T00:56:16.034Z,98188.53
2023-03-08T00:58:43.318Z,98184.34
2023-03-08T01:01:16.841Z,98189.38
2023-03-08T01:03:44.027Z,98183.50
2023-03-08T01:06:14.735Z,98179.31
2023-03-08T01:08:42.251Z,98176.78
2023-03-08T01:11:23.453Z,98165.94
2023-03-08T01:13:52.530Z,98163.41
2023-03-08T01:16:27.780Z,98148.38
2023-03-08T01:18:55.959Z,98148.38
2023-03-08T01:21:24.057Z,98147.56
2023-03-08T01:23:51.563Z,98152.56
2023-03-08T01:26:23.241Z,98143.34
2023-03-08T01:28:50.819Z,98145.84
2023-03-08T01:31:32.527Z,98140.03
2023-03-08T01:33:59.343Z,98130.84
2023-03-08T01:36:28.255Z,98129.16
2023-03-08T01:38:55.594Z,98119.97
2023-03-08T01:41:30.078Z,98120.81
2023-03-08T01:43:57.453Z,98114.13
2023-03-08T01:46:35.280Z,98109.94
2023-03-08T01:49:30.293Z,98100.78
2023-03-08T01:52:07.196Z,98099.94
2023-03-08T01:54:47.175Z,98105.81
2023-03-08T01:57:38.712Z,98100.81
2023-03-08T02:00:12.130Z,98094.94
2023-03-08T02:03:06.166Z,98093.28
2023-03-08T02:05:35.996Z,98091.59
2023-03-08T02:08:03.038Z,98093.25
2023-03-08T02:10:29.840Z,98099.13
2023-03-08T02:12:56.636Z,98094.06
2023-03-08T02:15:23.745Z,98092.41
2023-03-08T02:17:50.479Z,98091.59
2023-03-08T02:20:31.244Z,98088.25
2023-03-08T02:23:20.694Z,98088.22
2023-03-08T02:25:54.172Z,98084.91
2023-03-08T02:28:24.251Z,98070.69
2023-03-08T02:30:51.192Z,98058.97
2023-03-08T02:33:19.083Z,98057.31
2023-03-08T02:35:46.767Z,98048.13
2023-03-08T02:38:17.299Z,98045.63
2023-03-08T02:40:44.568Z,98039.78
2023-03-08T02:43:11.616Z,98047.28
2023-03-08T02:45:38.349Z,98051.47
2023-03-08T02:48:05.957Z,98041.47
2023-03-08T02:50:32.886Z,98036.47
2023-03-08T02:52:59.795Z,98038.13
2023-03-08T02:55:27.145Z,98035.63
2023-03-08T02:57:54.104Z,98034.81
2023-03-08T03:00:21.218Z,98022.25
2023-03-08T03:02:48.330Z,98019.75
2023-03-08T03:05:15.122Z,98010.59
2023-03-08T03:07:43.650Z,98005.59
2023-03-08T03:10:13.457Z,98008.09
2023-03-08T03:12:41.227Z,97996.41
2023-03-08T03:15:10.193Z,98001.44
2023-03-08T03:17:37.758Z,97995.59
2023-03-08T03:20:09.485Z,97983.91
2023-03-08T03:22:37.078Z,97978.94
2023-03-08T03:25:05.186Z,97981.44
2023-03-08T03:27:31.980Z,97968.94
2023-03-08T03:29:58.736Z,97966.44
2023-03-08T03:32:25.652Z,97968.94
2023-03-08T03:34:52.590Z,97963.94
2023-03-08T03:37:19.335Z,97968.97
2023-03-08T03:39:46.092Z,97969.81
2023-03-08T03:42:12.952Z,97963.16
2023-03-08T03:44:39.873Z,97960.66
2023-03-08T03:47:07.042Z,97959.81
2023-03-08T03:49:33.894Z,97957.31
2023-03-08T03:52:00.625Z,97946.47
2023-03-08T03:54:27.726Z,97950.66
2023-03-08T03:56:58.191Z,97953.16
2023-03-08T03:59:26.744Z,97944.81
2023-03-08T04:01:53.834Z,97944.81
2023-03-08T04:04:20.812Z,97945.66
2023-03-08T04:06:47.779Z,97944.81
2023-03-08T04:09:18.222Z,97940.63
2023-03-08T04:11:45.049Z,97941.47
2023-03-08T04:14:11.957Z,97934.81
2023-03-08T04:16:40.431Z,97925.63
2023-03-08T04:19:11.952Z,97921.44
2023-03-08T04:21:38.728Z,97917.31
2023-03-08T04:24:06.492Z,97916.47
2023-03-08T04:26:33.493Z,97908.97
2023-03-08T04:29:00.309Z,97890.59
2023-03-08T04:31:29.463Z,97887.28
2023-03-08T04:33:58.211Z,97883.97
2023-03-08T04:36:25.619Z,97877.28
2023-03-08T04:38:52.712Z,97872.28
2023-03-08T04:41:19.616Z,97860.59
2023-03-08T04:43:48.201Z,97854.75
2023-03-08T04:46:17.520Z,97855.59
2023-03-08T04:48:44.937Z,97846.47
2023-03-08T04:51:15.033Z,97837.28
2023-03-08T04:53:44.442Z,97843.13
2023-03-08T04:56:13.829Z,97840.66
2023-03-08T04:58:41.613Z,97838.13
2023-03-08T05:01:20.973Z,97822.31
2023-03-08T05:03:49.591Z,97828.94
2023-03-08T05:06:17.470Z,97818.13
2023-03-08T05:08:44.354Z,97804.78
2023-03-08T05:11:18.621Z,97810.66
2023-03-08T05:13:46.169Z,97802.28
2023-03-08T05:16:13.427Z,97799.00
2023-03-08T05:18:40.306Z,97796.47
2023-03-08T05:21:12.795Z,97793.13
2023-03-08T05:23:39.838Z,97783.97
2023-03-08T05:26:09.430Z,97771.47
2023-03-08T05:28:41.835Z,97773.16
2023-03-08T05:31:17.415Z,97770.63
2023-03-08T05:33:47.002Z,97766.50
2023-03-08T05:36:15.278Z,97763.16
2023-03-08T05:38:42.587Z,97757.34
2023-03-08T05:41:16.456Z,97754.84
2023-03-08T05:43:43.622Z,97736.50
2023-03-08T05:46:17.408Z,97729.84
2023-03-08T05:48:45.003Z,97730.69
2023-03-08T05:51:15.860Z,97732.38
2023-03-08T05:53:43.010Z,97721.53
2023-03-08T05:56:14.979Z,97707.38
2023-03-08T05:58:43.690Z,97712.38
2023-03-08T06:01:26.706Z,97709.03
2023-03-08T06:03:57.231Z,97696.56
2023-03-08T06:06:26.846Z,97679.88
2023-03-08T06:08:56.049Z,97667.38
2023-03-08T06:11:23.630Z,97663.22
2023-03-08T06:13:50.623Z,97674.03
2023-03-08T06:16:17.465Z,97666.53
2023-03-08T06:18:44.557Z,97676.56
2023-03-08T06:21:14.310Z,97664.88
2023-03-08T06:23:41.493Z,97665.69
2023-03-08T06:26:10.358Z,97652.38
2023-03-08T06:28:40.120Z,97645.69
2023-03-08T06:31:11.580Z,97647.38
2023-03-08T06:33:38.493Z,97633.22
2023-03-08T06:36:11.980Z,97628.19
2023-03-08T06:38:41.057Z,97618.22
2023-03-08T06:41:10.127Z,97611.53
2023-03-08T06:43:37.926Z,97602.34
2023-03-08T06:46:11.984Z,97590.72
2023-03-08T06:48:40.761Z,97589.03
2023-03-08T06:51:07.648Z,97576.53
2023-03-08T06:53:38.243Z,97588.19
2023-03-08T06:56:07.579Z,97589.81
2023-03-08T06:58:36.753Z,97587.31
2023-03-08T07:01:05.591Z,97583.16
2023-03-08T07:03:33.678Z,97574.81
2023-03-08T07:06:08.240Z,97565.63
2023-03-08T07:08:37.068Z,97570.63
2023-03-08T07:11:04.306Z,97574.00
2023-03-08T07:13:31.095Z,97575.66
2023-03-08T07:15:58.224Z,97558.13
2023-03-08T07:18:25.928Z,97564.78
2023-03-08T07:20:59.041Z,97567.28
2023-03-08T07:23:26.011Z,97555.63
2023-03-08T07:25:53.245Z,97556.44
2023-03-08T07:28:20.098Z,97548.13
2023-03-08T07:30:52.281Z,97556.44
2023-03-08T07:33:21.239Z,97546.44
2023-03-08T07:35:48.437Z,97544.72
2023-03-08T07:38:16.447Z,97545.59
2023-03-08T07:40:43.627Z,97545.59
2023-03-08T07:43:10.708Z,97543.06
2023-03-08T07:45:39.651Z,97543.88
2023-03-08T07:48:07.167Z,97534.72
2023-03-08T07:50:33.962Z,97533.88
2023-03-08T07:53:01.016Z,97531.38
2023-03-08T07:55:28.972Z,97527.19
2023-03-08T07:57:55.804Z,97521.34
2023-03-08T08:00:22.834Z,97513.00
2023-03-08T08:02:49.627Z,97507.97
2023-03-08T08:05:16.742Z,97502.13
2023-03-08T08:07:47.804Z,97497.09
2023-03-08T08:10:14.899Z,97492.09
2023-03-08T08:12:41.758Z,97487.03
2023-03-08T08:15:09.063Z,97484.47
2023-03-08T08:17:35.807Z,97463.59
2023-03-08T08:20:02.626Z,97457.72
2023-03-08T08:22:29.329Z,97466.00
2023-03-08T08:24:56.045Z,97464.25
2023-03-08T08:27:23.024Z,97460.84
2023-03-08T08:29:50.828Z,97455.78
2023-03-08T08:32:17.755Z,97455.72
2023-03-08T08:34:44.600Z,97441.47
2023-03-08T08:37:11.331Z,97435.63
2023-03-08T08:39:38.329Z,97430.56
2023-03-08T08:42:05.312Z,97435.53
2023-03-08T08:44:32.016Z,97428.00
2023-03-08T08:46:58.784Z,97429.66
2023-03-08T08:49:25.570Z,97424.66
2023-03-08T08:51:53.387Z,97427.16
2023-03-08T08:54:20.193Z,97427.97
2023-03-08T08:56:47.015Z,97429.63
2023-03-08T08:59:16.423Z,97426.25
2023-03-08T09:01:46.949Z,97430.41
2023-03-08T09:04:16.724Z,97426.22
2023-03-08T09:06:43.856Z,97421.22
2023-03-08T09:09:10.682Z,97419.53
2023-03-08T09:11:45.118Z,97420.34
2023-03-08T09:14:20.296Z,97415.34
2023-03-08T09:16:47.099Z,97412.78
2023-03-08T09:19:13.824Z,97403.63
2023-03-08T09:21:40.804Z,97409.41
2023-03-08T09:24:09.895Z,97404.38
2023-03-08T09:26:36.698Z,97398.41
2023-03-08T09:29:07.545Z,97401.69
2023-03-08T09:31:38.027Z,97384.88
2023-03-08T09:34:08.878Z,97390.59
2023-03-08T09:36:39.341Z,97394.63
2023-03-08T09:39:08.860Z,97395.34
2023-03-08T09:41:49.366Z,97388.56
2023-03-08T09:44:43.875Z,97394.41
2023-03-08T09:47:29.173Z,97391.97
2023-03-08T09:50:09.894Z,97396.13
2023-03-08T09:52:50.439Z,97397.78
2023-03-08T09:56:07.020Z,97391.94
2023-03-08T09:59:14.185Z,97379.44
2023-03-08T10:01:53.986Z,97385.31
2023-03-08T10:04:54.783Z,97373.66
2023-03-08T10:07:53.380Z,97372.78
2023-03-08T10:10:30.780Z,97361.09
2023-03-08T10:13:45.017Z,97365.22
2023-03-08T10:16:28.234Z,97353.50
2023-03-08T10:19:14.631Z,97365.97
2023-03-08T10:21:44.578Z,97365.91
2023-03-08T10:24:27.040Z,97365.84
2023-03-08T10:27:16.424Z,97364.13
2023-03-08T10:29:53.856Z,97365.72
2023-03-08T10:32:21.945Z,97371.50
2023-03-08T10:34:49.704Z,97378.09
2023-03-08T10:37:17.332Z,97378.06
2023-03-08T10:39:54.814Z,97374.63
2023-03-08T10:42:27.377Z,97364.66
2023-03-08T10:45:14.177Z,97361.28
2023-03-08T10:47:41.066Z,97355.41
2023-03-08T10:50:23.169Z,97353.72
2023-03-08T10:52:51.825Z,97348.69
2023-03-08T10:55:24.627Z,97347.06
2023-03-08T10:57:55.451Z,97352.09
2023-03-08T11:00:39.190Z,97345.38
2023-03-08T11:03:19.510Z,97340.34
2023-03-08T11:05:59.205Z,97343.63
2023-03-08T11:08:33.543Z,97336.00
2023-03-08T11:11:13.823Z,97335.13
2023-03-08T11:13:46.989Z,97333.34
2023-03-08T11:16:42.099Z,97332.47
2023-03-08T11:19:36.050Z,97328.25
2023-03-08T11:22:43.880Z,97325.59
2023-03-08T11:25:25.922Z,97329.63
2023-03-08T11:28:17.277Z,97338.53
2023-03-08T11:31:05.983Z,97334.97
2023-03-08T11:34:11.297Z,97336.44
2023-03-08T11:36:55.264Z,97332.19
2023-03-08T11:39:43.464Z,97331.22
2023-03-08T11:42:28.563Z,97320.34
2023-03-08T11:45:13.244Z,97315.31
2023-03-08T11:47:53.469Z,97320.34
2023-03-08T11:50:31.336Z,97308.63
2023-03-08T11:53:40.301Z,97306.03
2023-03-08T11:56:35.792Z,97302.63
2023-03-08T11:59:29.715Z,97301.72
2023-03-08T12:02:13.794Z,97303.25
2023-03-08T12:05:13.063Z,97299.69
2023-03-08T12:07:52.623Z,97305.41
2023-03-08T12:10:39.855Z,97295.31
2023-03-08T12:13:24.616Z,97290.19
2023-03-08T12:16:18.409Z,97296.03
2023-03-08T12:19:23.847Z,97295.22
2023-03-08T12:22:10.035Z,97291.09
2023-03-08T12:24:57.535Z,97290.19
2023-03-08T12:27:51.794Z,97275.97
2023-03-08T12:30:34.781Z,97285.09
2023-03-08T12:33:05.488Z,97285.09
2023-03-08T12:35:38.673Z,97281.69
2023-03-08T12:38:31.715Z,97272.47
2023-03-08T12:40:58.660Z,97275.81
2023-03-08T12:43:25.299Z,97287.47
2023-03-08T12:46:11.341Z,97292.41
2023-03-08T12:48:49.071Z,97284.88
2023-03-08T12:51:16.629Z,97270.69
2023-03-08T12:53:58.097Z,97272.31
2023-03-08T12:56:37.382Z,97272.31
2023-03-08T12:59:37.361Z,97269.78
2023-03-08T13:02:31.212Z,97253.00
2023-03-08T13:05:28.354Z,97251.25
2023-03-08T13:08:14.835Z,97236.88
2023-03-08T13:10:50.300Z,97227.50
2023-03-08T13:13:38.717Z,97230.69
2023-03-08T13:16:15.701Z,97240.59
2023-03-08T13:18:46.313Z,97237.19
2023-03-08T13:21:35.125Z,97242.16
2023-03-08T13:24:08.789Z,97246.41
2023-03-08T13:26:54.011Z,97239.72
2023-03-08T13:29:21.820Z,97224.75
2023-03-08T13:31:50.115Z,97223.94
2023-03-08T13:34:30.776Z,97217.25
2023-03-08T13:36:58.078Z,97220.78
2023-03-08T13:39:31.405Z,97226.66
2023-03-08T13:42:11.966Z,97223.38
2023-03-08T13:44:39.050Z,97218.38
2023-03-08T13:47:23.019Z,97209.19
2023-03-08T13:49:52.115Z,97222.63
2023-03-08T13:52:29.401Z,97224.28
2023-03-08T13:55:01.207Z,97209.25
2023-03-08T13:57:34.049Z,97210.19
2023-03-08T14:00:23.107Z,97210.31
2023-03-08T14:02:49.960Z,97204.53
2023-03-08T14:05:30.965Z,97207.97
2023-03-08T14:08:05.831Z,97203.81
2023-03-08T14:10:52.105Z,97198.00
2023-03-08T14:13:38.157Z,97202.22
2023-03-08T14:16:24.627Z,97202.31
2023-03-08T14:18:51.868Z,97197.28
2023-03-08T14:21:26.905Z,97211.56
2023-03-08T14:24:01.514Z,97214.88
2023-03-08T14:26:40.596Z,97204.84
2023-03-08T14:29:18.255Z,97206.53
2023-03-08T14:32:00.476Z,97208.28
2023-03-08T14:34:33.966Z,97218.34
2023-03-08T14:37:07.713Z,97218.34
2023-03-08T14:39:36.520Z,97206.53
2023-03-08T14:42:25.931Z,97194.78
2023-03-08T14:44:59.729Z,97194.81
2023-03-08T14:47:30.631Z,97199.94
2023-03-08T14:50:04.426Z,97188.19
2023-03-08T14:52:35.898Z,97194.88
2023-03-08T14:55:16.419Z,97204.06
2023-03-08T14:57:43.149Z,97200.75
2023-03-08T15:00:16.327Z,97209.91
2023-03-08T15:02:44.115Z,97197.28
2023-03-08T15:05:28.070Z,97215.59
2023-03-08T15:07:57.559Z,97206.31
2023-03-08T15:10:33.406Z,97207.06
2023-03-08T15:13:00.984Z,97207.03
2023-03-08T15:15:27.824Z,97205.31
2023-03-08T15:17:54.653Z,97199.41
2023-03-08T15:20:22.225Z,97195.22
2023-03-08T15:23:01.737Z,97196.88
2023-03-08T15:25:37.515Z,97205.25
2023-03-08T15:28:05.890Z,97206.09
2023-03-08T15:30:33.416Z,97207.75
2023-03-08T15:33:02.104Z,97210.28
2023-03-08T15:35:30.403Z,97206.91
2023-03-08T15:37:57.218Z,97214.44
2023-03-08T15:40:28.736Z,97221.94
2023-03-08T15:42:55.692Z,97216.06
2023-03-08T15:45:23.142Z,97225.25
2023-03-08T15:48:11.269Z,97223.47
2023-03-08T15:50:39.545Z,97215.97
2023-03-08T15:53:06.968Z,97215.06
2023-03-08T15:55:33.938Z,97222.53
2023-03-08T15:58:00.684Z,97229.16
2023-03-08T16:00:28.637Z,97229.16
2023-03-08T16:02:56.038Z,97229.97
2023-03-08T16:05:25.147Z,97222.38
2023-03-08T16:08:01.825Z,97225.75
2023-03-08T16:10:33.071Z,97235.00
2023-03-08T16:12:59.781Z,97226.66
2023-03-08T16:15:27.948Z,97235.84
2023-03-08T16:17:54.636Z,97234.19
2023-03-08T16:20:23.186Z,97233.31
2023-03-08T16:22:50.565Z,97228.31
2023-03-08T16:25:17.773Z,97231.69
2023-03-08T16:27:44.581Z,97227.50
2023-03-08T16:30:13.156Z,97228.34
2023-03-08T16:32:40.608Z,97237.59
2023-03-08T16:35:07.836Z,97222.53
2023-03-08T16:37:34.614Z,97213.31
2023-03-08T16:40:02.201Z,97208.31
2023-03-08T16:42:30.044Z,97205.09
2023-03-08T16:44:57.284Z,97201.81
2023-03-08T16:47:25.878Z,97197.75
2023-03-08T16:49:53.379Z,97204.53
2023-03-08T16:52:20.370Z,97210.44
2023-03-08T16:54:47.335Z,97211.31
2023-03-08T16:57:19.388Z,97222.25
2023-03-08T16:59:48.096Z,97218.88
2023-03-08T17:02:20.480Z,97214.66
2023-03-08T17:04:49.646Z,97228.00
2023-03-08T17:07:17.557Z,97214.56
2023-03-08T17:09:46.085Z,97212.88
2023-03-08T17:12:13.017Z,97204.44
2023-03-08T17:14:41.016Z,97215.34
2023-03-08T17:17:07.810Z,97203.63
2023-03-08T17:19:34.541Z,97212.88
2023-03-08T17:22:01.276Z,97197.78
2023-03-08T17:24:30.427Z,97204.53
2023-03-08T17:26:57.156Z,97203.72
2023-03-08T17:29:24.407Z,97200.44
2023-03-08T17:31:51.952Z,97203.03
2023-03-08T17:34:21.691Z,97200.53
2023-03-08T17:36:49.633Z,97209.81
2023-03-08T17:39:17.279Z,97195.63
2023-03-08T17:41:44.767Z,97202.38
2023-03-08T17:44:12.496Z,97186.47
2023-03-08T17:46:39.707Z,97188.03
2023-03-08T17:49:06.887Z,97193.78
2023-03-08T17:51:34.186Z,97195.75
2023-03-08T17:54:02.140Z,97196.00
2023-03-08T17:56:32.003Z,97195.38
2023-03-08T17:59:01.384Z,97194.66
2023-03-08T18:01:31.142Z,97208.97
2023-03-08T18:03:58.668Z,97214.88
2023-03-08T18:06:38.489Z,97228.38
2023-03-08T18:09:09.793Z,97218.38
2023-03-08T18:11:39.673Z,97206.66
2023-03-08T18:14:10.665Z,97213.41
2023-03-08T18:16:38.498Z,97209.28
2023-03-08T18:19:06.162Z,97224.34
2023-03-08T18:21:35.116Z,97217.66
2023-03-08T18:24:02.168Z,97224.38
2023-03-08T18:26:29.008Z,97219.44
2023-03-08T18:28:55.814Z,97218.63
2023-03-08T18:31:26.057Z,97220.38
2023-03-08T18:33:55.132Z,97213.69
2023-03-08T18:36:23.768Z,97222.13
2023-03-08T18:38:50.839Z,97220.47
2023-03-08T18:41:25.598Z,97217.25
2023-03-08T18:43:54.771Z,97207.91
2023-03-08T18:46:28.465Z,97208.16
2023-03-08T18:48:58.416Z,97208.59
2023-03-08T18:51:25.176Z,97203.03
2023-03-08T18:53:54.813Z,97196.59
2023-03-08T18:56:23.142Z,97199.28
2023-03-08T18:58:49.914Z,97200.28
2023-03-08T19:01:17.547Z,97210.47
2023-03-08T19:03:45.719Z,97211.34
2023-03-08T19:06:14.165Z,97207.25
2023-03-08T19:08:41.446Z,97202.28
2023-03-08T19:11:18.871Z,97195.69
2023-03-08T19:13:46.938Z,97178.19
2023-03-08T19:16:21.298Z,97169.97
2023-03-08T19:18:50.828Z,97180.00
2023-03-08T19:21:28.215Z,97178.38
2023-03-08T19:23:56.189Z,97180.03
2023-03-08T19:26:35.876Z,97186.69
2023-03-08T19:29:25.128Z,97181.66
2023-03-08T19:31:54.878Z,97185.03
2023-03-08T19:34:26.036Z,97178.34
2023-03-08T19:36:53.207Z,97178.34
2023-03-08T19:39:29.976Z,97175.03
2023-03-08T19:42:01.070Z,97183.41
2023-03-08T19:44:29.059Z,97185.06
2023-03-08T19:46:56.826Z,97178.38
2023-03-08T19:49:29.470Z,97180.91
2023-03-08T19:51:59.270Z,97184.22
2023-03-08T19:54:28.319Z,97185.84
2023-03-08T19:56:56.194Z,97164.97
2023-03-08T19:59:23.912Z,97175.00
2023-03-08T20:01:52.824Z,97174.13
2023-03-08T20:04:20.728Z,97164.94
2023-03-08T20:06:49.676Z,97166.59
2023-03-08T20:09:23.868Z,97164.94
2023-03-08T20:11:56.487Z,97163.19
2023-03-08T20:14:27.123Z,97169.88
2023-03-08T20:16:54.498Z,97174.00
2023-03-08T20:19:22.267Z,97175.59
2023-03-08T20:21:49.120Z,97172.22
2023-03-08T20:24:18.412Z,97177.19
2023-03-08T20:26:47.837Z,97166.34
2023-03-08T20:29:15.361Z,97178.88
2023-03-08T20:31:42.810Z,97173.81
2023-03-08T20:34:09.771Z,97170.44
2023-03-08T20:36:37.444Z,97168.72
2023-03-08T20:39:04.611Z,97167.06
2023-03-08T20:41:31.698Z,97183.75
2023-03-08T20:43:58.477Z,97185.41
2023-03-08T20:46:31.118Z,97179.50
2023-03-08T20:48:58.074Z,97171.94
2023-03-08T20:51:25.601Z,97170.25
2023-03-08T20:53:54.495Z,97159.31
2023-03-08T20:56:24.560Z,97171.06
2023-03-08T20:58:54.393Z,97166.03
2023-03-08T21:01:31.171Z,97171.94
2023-03-08T21:03:58.352Z,97171.16
2023-03-08T21:06:30.157Z,97166.84
2023-03-08T21:08:58.566Z,97154.31
2023-03-08T21:11:25.534Z,97136.72
2023-03-08T21:13:52.888Z,97136.72
2023-03-08T21:16:22.639Z,97136.72
2023-03-08T21:18:56.002Z,97130.03
2023-03-08T21:21:28.034Z,97126.66
2023-03-08T21:23:58.276Z,97129.97
2023-03-08T21:26:27.894Z,97121.53
2023-03-08T21:29:01.684Z,97129.88
2023-03-08T21:31:34.740Z,97118.09
2023-03-08T21:34:04.443Z,97115.50
2023-03-08T21:36:31.906Z,97097.91
2023-03-08T21:38:59.810Z,97102.94
2023-03-08T21:41:34.166Z,97104.59
2023-03-08T21:44:09.241Z,97111.25
2023-03-08T21:46:37.938Z,97102.06
2023-03-08T21:49:06.055Z,97094.53
2023-03-08T21:51:33.870Z,97095.38
2023-03-08T21:54:00.857Z,97082.81
2023-03-08T21:56:28.089Z,97084.47
2023-03-08T21:58:56.033Z,97081.94
2023-03-08T22:01:29.303Z,97076.88
2023-03-08T22:03:57.586Z,97077.69
2023-03-08T22:06:25.580Z,97065.94
2023-03-08T22:08:53.273Z,97053.38
2023-03-08T22:11:21.619Z,97055.09
2023-03-08T22:13:57.578Z,97053.38
2023-03-08T22:16:26.194Z,97053.38
2023-03-08T22:19:00.494Z,97044.22
2023-03-08T22:21:28.775Z,97051.72
2023-03-08T22:23:58.571Z,97054.19
2023-03-08T22:26:27.262Z,97044.03
2023-03-08T22:28:55.865Z,97045.59
2023-03-08T22:31:26.657Z,97047.19
2023-03-08T22:33:54.149Z,97051.28
2023-03-08T22:36:21.846Z,97038.63
2023-03-08T22:38:49.162Z,97037.72
2023-03-08T22:41:21.171Z,97021.72
2023-03-08T22:43:49.282Z,97030.09
2023-03-08T22:46:23.419Z,97022.53
2023-03-08T22:48:51.589Z,97015.78
2023-03-08T22:51:21.431Z,97015.78
2023-03-08T22:53:48.544Z,97021.53
2023-03-08T22:56:30.149Z,97013.97
2023-03-08T22:58:58.331Z,97008.91
2023-03-08T23:01:26.147Z,97010.56
2023-03-08T23:03:59.448Z,97014.63
2023-03-08T23:06:29.131Z,97015.44
2023-03-08T23:09:04.397Z,97022.06
2023-03-08T23:11:31.190Z,97015.22
2023-03-08T23:13:58.217Z,97024.34
2023-03-08T23:16:25.825Z,97015.06
2023-03-08T23:18:54.561Z,97003.41
2023-03-08T23:21:24.678Z,97012.66
2023-03-08T23:23:51.409Z,97008.44
2023-03-08T23:26:24.397Z,97010.09
2023-03-08T23:28:51.289Z,97013.47
2023-03-08T23:31:22.426Z,97016.03
2023-03-08T23:33:50.301Z,97031.94
2023-03-08T23:36:23.807Z,97039.53
2023-03-08T23:38:51.445Z,97056.22
2023-03-08T23:41:18.500Z,97043.66
2023-03-08T23:43:46.482Z,97041.06
2023-03-08T23:46:17.552Z,97026.84
2023-03-08T23:48:46.649Z,97018.50
2023-03-08T23:51:19.417Z,97015.13
2023-03-08T23:53:49.780Z,97021.06
2023-03-08T23:56:30.086Z,97036.97
2023-03-08T23:59:02.385Z,97044.50
